Terminal Aerodrome Forecast
Issued by NWS Twin Cities, MN

Home | Current Version | Previous Version | Text Only | Print | Product List | Glossary On
Versions: 1 2 3 4 5 6 7 8 9 10 11 12 13 14 15 16
000
FTUS43 KMPX 011135
TAFEAU
TAF
KEAU 011135Z 0112/0212 05012G19KT 3SM -SN OVC020
      TEMPO 0112/0114 2SM -SN SCT015 OVC018
     FM011600 05011KT P6SM BKN020 OVC080
     FM011900 02013KT P6SM SCT020
     FM020000 35003KT P6SM BKN050=

USA.gov is the U.S. government's official web portal to all federal, state and local government web resources and services.